createdAt,value
2023-04-22T00:01:47.236Z,100280.0
2023-04-22T00:03:47.066Z,100270.0
2023-04-22T00:07:46.751Z,100280.0
2023-04-22T00:09:45.851Z,100270.0
2023-04-22T00:11:45.476Z,100280.0
2023-04-22T00:13:45.160Z,100280.0
2023-04-22T00:15:44.896Z,100280.0
2023-04-22T00:19:44.096Z,100270.0
2023-04-22T00:21:43.735Z,100270.0
2023-04-22T00:23:44.339Z,100270.0
2023-04-22T00:25:43.038Z,100260.0
2023-04-22T00:27:44.083Z,100260.0
2023-04-22T00:29:42.296Z,100260.0
2023-04-22T00:31:42.050Z,100250.0
2023-04-22T00:35:41.393Z,100250.0
2023-04-22T00:37:41.359Z,100250.0
2023-04-22T00:39:41.004Z,100250.0
2023-04-22T00:41:40.568Z,100250.0
2023-04-22T00:43:39.920Z,100250.0
2023-04-22T00:45:39.802Z,100250.0
2023-04-22T00:47:40.397Z,100250.0
2023-04-22T00:49:39.177Z,100250.0
2023-04-22T00:51:38.330Z,100250.0
2023-04-22T00:53:38.824Z,100260.0
2023-04-22T00:55:37.878Z,100250.0
2023-04-22T00:57:38.140Z,100250.0
2023-04-22T00:59:37.791Z,100250.0
2023-04-22T01:01:36.833Z,100250.0
2023-04-22T01:03:39.614Z,100240.0
2023-04-22T01:05:36.073Z,100240.0
2023-04-22T01:07:35.644Z,100240.0
2023-04-22T01:09:35.549Z,100240.0
2023-04-22T01:11:35.387Z,100240.0
2023-04-22T01:13:35.796Z,100240.0
2023-04-22T01:15:34.661Z,100240.0
2023-04-22T01:19:33.338Z,100240.0
2023-04-22T01:21:34.586Z,100240.0
2023-04-22T01:25:32.616Z,100240.0
2023-04-22T01:27:34.660Z,100230.0
2023-04-22T01:29:31.856Z,100230.0
2023-04-22T01:31:31.930Z,100230.0
2023-04-22T01:33:31.049Z,100230.0
2023-04-22T01:35:35.764Z,100230.0
2023-04-22T01:37:30.214Z,100220.0
2023-04-22T01:39:29.964Z,100220.0
2023-04-22T01:41:29.577Z,100220.0
2023-04-22T01:43:29.907Z,100220.0
2023-04-22T01:45:29.091Z,100230.0
2023-04-22T01:47:28.305Z,100220.0
2023-04-22T01:49:27.982Z,100230.0
2023-04-22T01:51:27.760Z,100230.0
2023-04-22T01:53:27.183Z,100220.0
2023-04-22T01:55:27.241Z,100220.0
2023-04-22T01:57:26.393Z,100220.0
2023-04-22T01:59:26.125Z,100200.0
2023-04-22T02:01:25.826Z,100200.0
2023-04-22T02:03:25.613Z,100200.0
2023-04-22T02:05:25.280Z,100210.0
2023-04-22T02:07:24.892Z,100210.0
2023-04-22T02:09:24.505Z,100210.0
2023-04-22T02:11:23.983Z,100210.0
2023-04-22T02:13:23.913Z,100210.0
2023-04-22T02:15:23.234Z,100200.0
2023-04-22T02:17:22.853Z,100190.0
2023-04-22T02:19:22.653Z,100190.0
2023-04-22T02:21:22.306Z,100190.0
2023-04-22T02:23:22.228Z,100190.0
2023-04-22T02:25:21.690Z,100190.0
2023-04-22T02:27:21.253Z,100190.0
2023-04-22T02:29:20.712Z,100200.0
2023-04-22T02:31:20.390Z,100200.0
2023-04-22T02:33:20.206Z,100200.0
2023-04-22T02:35:19.677Z,100190.0
2023-04-22T02:37:20.763Z,100190.0
2023-04-22T02:39:19.239Z,100200.0
2023-04-22T02:41:18.637Z,100200.0
2023-04-22T02:43:18.268Z,100190.0
2023-04-22T02:45:18.017Z,100180.0
2023-04-22T02:47:17.895Z,100180.0
2023-04-22T02:49:17.313Z,100180.0
2023-04-22T02:51:17.162Z,100170.0
2023-04-22T02:53:16.600Z,100180.0
2023-04-22T02:55:16.222Z,100180.0
2023-04-22T02:57:15.792Z,100170.0
2023-04-22T02:59:15.564Z,100160.0
2023-04-22T03:01:15.392Z,100160.0
2023-04-22T03:03:14.967Z,100150.0
2023-04-22T03:05:14.994Z,100150.0
2023-04-22T03:07:14.240Z,100150.0
2023-04-22T03:09:13.745Z,100150.0
2023-04-22T03:11:13.456Z,100150.0
2023-04-22T03:13:13.164Z,100150.0
2023-04-22T03:15:12.933Z,100140.0
2023-04-22T03:17:12.292Z,100140.0
2023-04-22T03:19:12.075Z,100140.0
2023-04-22T03:21:11.668Z,100130.0
2023-04-22T03:23:11.291Z,100130.0
2023-04-22T03:25:11.523Z,100130.0
2023-04-22T03:27:10.521Z,100130.0
2023-04-22T03:29:10.152Z,100120.0
2023-04-22T03:31:09.949Z,100120.0
2023-04-22T03:33:10.491Z,100110.0
2023-04-22T03:35:09.883Z,100100.0
2023-04-22T03:37:08.979Z,100110.0
2023-04-22T03:39:08.690Z,100110.0
2023-04-22T03:41:08.297Z,100100.0
2023-04-22T03:43:07.825Z,100100.0
2023-04-22T03:45:07.994Z,100100.0
2023-04-22T03:47:07.033Z,100090.0
2023-04-22T03:49:06.783Z,100090.0
2023-04-22T03:51:06.306Z,100090.0
2023-04-22T03:53:05.810Z,100100.0
2023-04-22T03:55:05.739Z,100090.0
2023-04-22T03:57:05.222Z,100090.0
2023-04-22T04:03:04.459Z,100090.0
2023-04-22T04:05:04.402Z,100100.0
2023-04-22T04:07:03.288Z,100110.0
2023-04-22T04:09:03.460Z,100110.0
2023-04-22T04:11:02.689Z,100110.0
2023-04-22T04:13:02.203Z,100110.0
2023-04-22T04:15:01.927Z,100110.0
2023-04-22T04:17:02.720Z,100110.0
2023-04-22T04:19:02.741Z,100100.0
2023-04-22T04:21:00.771Z,100100.0
2023-04-22T04:23:00.405Z,100090.0
2023-04-22T04:25:00.810Z,100090.0
2023-04-22T04:26:59.716Z,100090.0
2023-04-22T04:29:00.682Z,100090.0
2023-04-22T04:30:59.374Z,100090.0
2023-04-22T04:32:58.585Z,100090.0
2023-04-22T04:34:58.956Z,100080.0
2023-04-22T04:36:57.962Z,100090.0
2023-04-22T04:38:57.436Z,100090.0
2023-04-22T04:40:57.601Z,100080.0
2023-04-22T04:42:56.847Z,100080.0
2023-04-22T04:44:57.422Z,100080.0
2023-04-22T04:46:56.820Z,100080.0
2023-04-22T04:48:56.529Z,100070.0
2023-04-22T04:50:55.645Z,100070.0
2023-04-22T04:52:54.855Z,100070.0
2023-04-22T04:54:54.624Z,100060.0
2023-04-22T04:56:54.255Z,100070.0
2023-04-22T04:58:53.677Z,100070.0
2023-04-22T05:00:53.528Z,100070.0
2023-04-22T05:02:53.203Z,100060.0
2023-04-22T05:04:52.712Z,100070.0
2023-04-22T05:06:52.824Z,100060.0
2023-04-22T05:08:51.934Z,100060.0
2023-04-22T05:10:51.570Z,100060.0
2023-04-22T05:12:51.305Z,100060.0
2023-04-22T05:14:51.114Z,100060.0
2023-04-22T05:16:50.811Z,100060.0
2023-04-22T05:18:50.117Z,100060.0
2023-04-22T05:20:49.810Z,100060.0
2023-04-22T05:22:49.343Z,100060.0
2023-04-22T05:24:49.186Z,100070.0
2023-04-22T05:26:49.273Z,100070.0
2023-04-22T05:28:48.320Z,100070.0
2023-04-22T05:30:47.913Z,100070.0
2023-04-22T05:32:47.597Z,100070.0
2023-04-22T05:34:47.151Z,100070.0
2023-04-22T05:36:47.073Z,100070.0
2023-04-22T05:38:46.531Z,100080.0
2023-04-22T05:40:46.247Z,100070.0
2023-04-22T05:42:45.741Z,100070.0
2023-04-22T05:44:45.391Z,100060.0
2023-04-22T05:48:44.716Z,100070.0
2023-04-22T05:50:44.549Z,100080.0
2023-04-22T05:54:43.777Z,100070.0
2023-04-22T05:58:43.117Z,100070.0
2023-04-22T06:00:42.621Z,100060.0
2023-04-22T06:04:42.179Z,100070.0
2023-04-22T06:06:41.836Z,100070.0
2023-04-22T06:08:41.404Z,100070.0
2023-04-22T06:10:40.951Z,100060.0
2023-04-22T06:12:40.544Z,100060.0
2023-04-22T06:14:40.244Z,100050.0
2023-04-22T06:16:40.301Z,100050.0
2023-04-22T06:18:39.980Z,100040.0
2023-04-22T06:20:39.494Z,100050.0
2023-04-22T06:22:39.100Z,100060.0
2023-04-22T06:24:38.669Z,100060.0
2023-04-22T06:26:38.380Z,100070.0
2023-04-22T06:30:38.029Z,100070.0
2023-04-22T06:32:37.521Z,100070.0
2023-04-22T06:34:37.766Z,100060.0
2023-04-22T06:36:37.347Z,100060.0
2023-04-22T06:38:36.532Z,100060.0
2023-04-22T06:40:36.290Z,100060.0
2023-04-22T06:42:35.970Z,100060.0
2023-04-22T06:44:35.611Z,100060.0
2023-04-22T06:46:35.441Z,100060.0
2023-04-22T06:48:35.084Z,100070.0
2023-04-22T06:50:35.168Z,100070.0
2023-04-22T06:52:34.814Z,100070.0
2023-04-22T06:54:34.324Z,100070.0
2023-04-22T06:56:35.040Z,100070.0
2023-04-22T06:58:33.598Z,100080.0
2023-04-22T07:00:33.276Z,100080.0
2023-04-22T07:02:33.042Z,100090.0
2023-04-22T07:04:32.938Z,100090.0
2023-04-22T07:06:32.537Z,100090.0
2023-04-22T07:08:32.175Z,100100.0
2023-04-22T07:10:33.019Z,100100.0
2023-04-22T07:12:31.610Z,100100.0
2023-04-22T07:14:32.497Z,100100.0
2023-04-22T07:16:31.100Z,100100.0
2023-04-22T07:18:31.094Z,100090.0
2023-04-22T07:20:30.725Z,100090.0
2023-04-22T07:22:30.251Z,100080.0
2023-04-22T07:24:30.118Z,100070.0
2023-04-22T07:26:30.849Z,100060.0
2023-04-22T07:28:29.518Z,100060.0
2023-04-22T07:30:29.391Z,100060.0
2023-04-22T07:32:29.714Z,100050.0
2023-04-22T07:34:28.762Z,100060.0
2023-04-22T07:36:28.792Z,100050.0
2023-04-22T07:38:28.286Z,100050.0
2023-04-22T07:40:28.086Z,100050.0
2023-04-22T07:42:27.782Z,100050.0
2023-04-22T07:44:27.476Z,100030.0
2023-04-22T07:46:27.296Z,100020.0
2023-04-22T07:48:27.115Z,100020.0
2023-04-22T07:50:26.716Z,100000.0
2023-04-22T07:52:26.509Z,100000.0
2023-04-22T07:54:26.226Z,100010.0
2023-04-22T07:56:26.374Z,100020.0
2023-04-22T07:58:25.666Z,100030.0
2023-04-22T08:00:25.816Z,100030.0
2023-04-22T08:02:25.364Z,100030.0
2023-04-22T08:04:25.334Z,100030.0
2023-04-22T08:06:25.094Z,100030.0
2023-04-22T08:12:24.101Z,100030.0
2023-04-22T08:14:23.820Z,100030.0
2023-04-22T08:18:23.277Z,100040.0
2023-04-22T08:20:24.600Z,100050.0
2023-04-22T08:22:22.984Z,100060.0
2023-04-22T08:26:22.320Z,100080.0
2023-04-22T08:28:22.413Z,100080.0
2023-04-22T08:30:21.959Z,100090.0
2023-04-22T08:32:25.236Z,100100.0
2023-04-22T08:34:21.406Z,100090.0
2023-04-22T08:36:22.655Z,100080.0
2023-04-22T08:38:20.967Z,100090.0
2023-04-22T08:40:20.878Z,100090.0
2023-04-22T08:42:21.932Z,100090.0
2023-04-22T08:44:21.344Z,100090.0
2023-04-22T08:46:21.037Z,100080.0
2023-04-22T08:48:20.033Z,100070.0
2023-04-22T08:50:20.450Z,100070.0
2023-04-22T08:52:20.179Z,100070.0
2023-04-22T08:54:19.662Z,100060.0
2023-04-22T08:56:19.836Z,100060.0
2023-04-22T08:58:19.002Z,100070.0
2023-04-22T09:00:18.861Z,100060.0
2023-04-22T09:02:20.421Z,100070.0
2023-04-22T09:04:19.005Z,100070.0
2023-04-22T09:06:19.672Z,100070.0
2023-04-22T09:08:18.502Z,100060.0
2023-04-22T09:10:17.675Z,100060.0
2023-04-22T09:12:18.049Z,100060.0
2023-04-22T09:14:18.887Z,100050.0
2023-04-22T09:16:17.069Z,100040.0
2023-04-22T09:18:17.507Z,100040.0
2023-04-22T09:20:18.716Z,100030.0
2023-04-22T09:22:16.530Z,100030.0
2023-04-22T09:24:16.991Z,100030.0
2023-04-22T09:26:19.627Z,100030.0
2023-04-22T09:28:17.731Z,100030.0
2023-04-22T09:30:17.984Z,100040.0
2023-04-22T09:32:16.121Z,100040.0
2023-04-22T09:34:15.426Z,100040.0
2023-04-22T09:36:15.517Z,100040.0
2023-04-22T09:38:15.680Z,100050.0
2023-04-22T09:40:17.243Z,100040.0
2023-04-22T09:42:14.677Z,100050.0
2023-04-22T09:44:16.967Z,100050.0
2023-04-22T09:46:14.330Z,100040.0
2023-04-22T09:48:17.686Z,100060.0
2023-04-22T09:50:13.951Z,100060.0
2023-04-22T09:52:23.428Z,100060.0
2023-04-22T09:54:13.476Z,100070.0
2023-04-22T10:00:14.172Z,100040.0
2023-04-22T10:02:13.301Z,100040.0
2023-04-22T10:04:14.415Z,100050.0
2023-04-22T10:06:12.479Z,100050.0
2023-04-22T10:08:14.262Z,100050.0
2023-04-22T10:12:14.097Z,100050.0
2023-04-22T10:14:13.132Z,100050.0
2023-04-22T10:16:11.560Z,100040.0
2023-04-22T10:18:15.943Z,100040.0
2023-04-22T10:20:16.776Z,100040.0
2023-04-22T10:22:11.789Z,100030.0
2023-04-22T10:24:16.102Z,100030.0
2023-04-22T10:26:10.468Z,100040.0
2023-04-22T10:28:10.499Z,100020.0
2023-04-22T10:30:20.562Z,100030.0
2023-04-22T10:32:23.671Z,100030.0
2023-04-22T10:34:12.212Z,100020.0
2023-04-22T10:36:16.822Z,100020.0
2023-04-22T10:38:09.057Z,100020.0
2023-04-22T10:40:10.991Z,100020.0
2023-04-22T10:42:10.374Z,100020.0
2023-04-22T10:44:08.618Z,100020.0
2023-04-22T10:46:28.133Z,100020.0
2023-04-22T10:48:08.300Z,100010.0
2023-04-22T10:50:10.679Z,100010.0
2023-04-22T10:52:26.517Z,100000.0
2023-04-22T10:54:29.608Z,100010.0
2023-04-22T10:56:16.979Z,100010.0
2023-04-22T10:58:18.105Z,100000.0
2023-04-22T11:00:17.223Z,100000.0
2023-04-22T11:04:22.080Z,100010.0
2023-04-22T11:08:10.587Z,100010.0
2023-04-22T11:10:09.798Z,100020.0
2023-04-22T11:12:25.512Z,100010.0
2023-04-22T11:14:08.084Z,100020.0
2023-04-22T11:16:07.565Z,100010.0
2023-04-22T11:18:17.605Z,100010.0
2023-04-22T11:20:06.459Z,100010.0
2023-04-22T11:22:04.904Z,100010.0
2023-04-22T11:24:08.965Z,100010.0
2023-04-22T11:26:05.451Z,100010.0
2023-04-22T11:28:04.520Z,100010.0
2023-04-22T11:30:06.643Z,100010.0
2023-04-22T11:32:04.217Z,100010.0
2023-04-22T11:34:03.769Z,100020.0
2023-04-22T11:36:04.871Z,100020.0
2023-04-22T11:38:05.134Z,100020.0
2023-04-22T11:42:04.557Z,100010.0
2023-04-22T11:44:02.777Z,100010.0
2023-04-22T11:46:04.073Z,100010.0
2023-04-22T11:48:04.808Z,100010.0
2023-04-22T11:50:06.112Z,100010.0
2023-04-22T11:52:02.102Z,100000.0
2023-04-22T11:54:02.712Z,100010.0
2023-04-22T11:56:02.992Z,100000.0
2023-04-22T11:58:06.204Z,100000.0
2023-04-22T12:00:01.419Z,100010.0
2023-04-22T12:02:04.090Z,100000.0
2023-04-22T12:06:02.601Z,100010.0
2023-04-22T12:08:02.510Z,100010.0
2023-04-22T12:10:01.793Z,100010.0
2023-04-22T12:12:02.637Z,100020.0
2023-04-22T12:14:05.270Z,100020.0
2023-04-22T12:16:01.792Z,100010.0
2023-04-22T12:18:00.867Z,100020.0
2023-04-22T12:19:59.402Z,100010.0
2023-04-22T12:22:00.023Z,100020.0
2023-04-22T12:24:03.270Z,100020.0
2023-04-22T12:25:58.946Z,100020.0
2023-04-22T12:29:58.508Z,100030.0
2023-04-22T12:31:58.501Z,100030.0
2023-04-22T12:33:59.205Z,100030.0
2023-04-22T12:35:58.025Z,100030.0
2023-04-22T12:37:57.665Z,100020.0
2023-04-22T12:39:57.746Z,100030.0
2023-04-22T12:41:57.635Z,100020.0
2023-04-22T12:43:57.058Z,100010.0
2023-04-22T12:47:57.019Z,100020.0
2023-04-22T12:49:57.609Z,100010.0
2023-04-22T12:51:56.308Z,100020.0
2023-04-22T12:53:56.165Z,100010.0
2023-04-22T12:55:56.058Z,100010.0
2023-04-22T12:57:55.947Z,100010.0
2023-04-22T12:59:57.422Z,100010.0
2023-04-22T13:03:55.622Z,100010.0
2023-04-22T13:05:55.213Z,100010.0
2023-04-22T13:09:54.657Z,100000.0
2023-04-22T13:11:54.534Z,100010.0
2023-04-22T13:13:54.279Z,100010.0
2023-04-22T13:15:54.669Z,100000.0
2023-04-22T13:17:53.894Z,100000.0
2023-04-22T13:19:53.834Z,100000.0
2023-04-22T13:21:53.645Z,100000.0
2023-04-22T13:23:53.401Z,100000.0
2023-04-22T13:25:53.354Z,99990.0
2023-04-22T13:29:52.855Z,99990.0
2023-04-22T13:31:52.882Z,99990.0
2023-04-22T13:33:52.434Z,99990.0
2023-04-22T13:35:52.508Z,99990.0
2023-04-22T13:37:52.154Z,99990.0
2023-04-22T13:39:52.103Z,99990.0
2023-04-22T13:41:51.973Z,99990.0
2023-04-22T13:43:53.387Z,99990.0
2023-04-22T13:51:50.803Z,99980.0
2023-04-22T13:53:50.863Z,99980.0
2023-04-22T13:55:50.362Z,99980.0
2023-04-22T13:57:50.850Z,99980.0
2023-04-22T13:59:50.078Z,99970.0
2023-04-22T14:01:49.864Z,99970.0
2023-04-22T14:03:50.961Z,99970.0
2023-04-22T14:05:49.927Z,99970.0
2023-04-22T14:09:49.394Z,99970.0
2023-04-22T14:11:48.960Z,99970.0
2023-04-22T14:13:49.000Z,99970.0
2023-04-22T14:15:49.584Z,99970.0
2023-04-22T14:17:48.521Z,99970.0
2023-04-22T14:19:48.472Z,99970.0
2023-04-22T14:21:48.140Z,99970.0
2023-04-22T14:23:48.567Z,99970.0
2023-04-22T14:25:48.139Z,99970.0
2023-04-22T14:27:47.420Z,99970.0
2023-04-22T14:29:51.236Z,99970.0
2023-04-22T14:31:48.774Z,99970.0
2023-04-22T14:33:46.800Z,99970.0
2023-04-22T14:35:46.738Z,99960.0
2023-04-22T14:37:46.686Z,99970.0
2023-04-22T14:41:46.503Z,99970.0
2023-04-22T14:43:46.074Z,99970.0
2023-04-22T14:45:46.458Z,99980.0
2023-04-22T14:49:45.390Z,99980.0
2023-04-22T14:51:45.227Z,99980.0
2023-04-22T14:53:44.973Z,99990.0
2023-04-22T14:55:44.865Z,99990.0
2023-04-22T14:57:44.382Z,99990.0
2023-04-22T14:59:44.425Z,99990.0
2023-04-22T15:01:44.181Z,100000.0
2023-04-22T15:03:44.274Z,100010.0
2023-04-22T15:05:48.144Z,100010.0
2023-04-22T15:07:43.355Z,100010.0
2023-04-22T15:09:43.484Z,100010.0
2023-04-22T15:11:42.964Z,100020.0
2023-04-22T15:13:42.681Z,100020.0
2023-04-22T15:15:42.638Z,100020.0
2023-04-22T15:17:43.350Z,100030.0
2023-04-22T15:19:42.227Z,100030.0
2023-04-22T15:21:41.803Z,100050.0
2023-04-22T15:23:41.602Z,100050.0
2023-04-22T15:27:41.223Z,100060.0
2023-04-22T15:29:44.069Z,100060.0
2023-04-22T15:31:40.803Z,100060.0
2023-04-22T15:33:40.669Z,100060.0
2023-04-22T15:35:42.203Z,100060.0
2023-04-22T15:37:40.266Z,100070.0
2023-04-22T15:39:40.107Z,100070.0
2023-04-22T15:41:40.959Z,100070.0
2023-04-22T15:43:39.673Z,100080.0
2023-04-22T15:45:39.196Z,100070.0
2023-04-22T15:47:40.035Z,100080.0
2023-04-22T15:49:38.918Z,100080.0
2023-04-22T15:51:38.968Z,100080.0
2023-04-22T15:53:38.224Z,100090.0
2023-04-22T15:55:37.916Z,100080.0
2023-04-22T15:57:37.623Z,100090.0
2023-04-22T15:59:37.760Z,100090.0
2023-04-22T16:01:38.227Z,100090.0
2023-04-22T16:03:37.188Z,100090.0
2023-04-22T16:05:36.768Z,100090.0
2023-04-22T16:07:36.545Z,100090.0
2023-04-22T16:09:36.385Z,100090.0
2023-04-22T16:11:36.162Z,100100.0
2023-04-22T16:13:37.810Z,100100.0
2023-04-22T16:15:35.896Z,100100.0
2023-04-22T16:17:35.887Z,100110.0
2023-04-22T16:19:35.054Z,100120.0
2023-04-22T16:21:34.941Z,100120.0
2023-04-22T16:23:35.049Z,100120.0
2023-04-22T16:25:34.457Z,100120.0
2023-04-22T16:27:34.415Z,100120.0
2023-04-22T16:29:33.844Z,100130.0
2023-04-22T16:31:34.074Z,100130.0
2023-04-22T16:33:33.820Z,100140.0
2023-04-22T16:35:33.719Z,100140.0
2023-04-22T16:37:33.187Z,100140.0
2023-04-22T16:39:32.879Z,100140.0
2023-04-22T16:41:33.072Z,100140.0
2023-04-22T16:43:32.335Z,100140.0
2023-04-22T16:45:32.260Z,100140.0
2023-04-22T16:47:31.793Z,100140.0
2023-04-22T16:49:31.422Z,100150.0
2023-04-22T16:53:31.046Z,100150.0
2023-04-22T16:55:30.882Z,100140.0
2023-04-22T16:57:30.675Z,100140.0
2023-04-22T16:59:30.207Z,100150.0
2023-04-22T17:01:30.193Z,100160.0
2023-04-22T17:03:29.980Z,100160.0
2023-04-22T17:05:29.629Z,100160.0
2023-04-22T17:07:29.388Z,100160.0
2023-04-22T17:11:31.205Z,100170.0
2023-04-22T17:13:28.607Z,100180.0
2023-04-22T17:15:28.213Z,100180.0
2023-04-22T17:17:28.179Z,100180.0
2023-04-22T17:19:27.721Z,100180.0
2023-04-22T17:21:27.756Z,100190.0
2023-04-22T17:23:27.200Z,100190.0
2023-04-22T17:25:27.139Z,100190.0
2023-04-22T17:27:26.689Z,100190.0
2023-04-22T17:29:26.567Z,100200.0
2023-04-22T17:31:26.296Z,100190.0
2023-04-22T17:33:25.897Z,100200.0
2023-04-22T17:35:25.652Z,100200.0
2023-04-22T17:37:25.401Z,100200.0
2023-04-22T17:39:25.155Z,100210.0
2023-04-22T17:43:25.156Z,100210.0
2023-04-22T17:45:24.428Z,100210.0
2023-04-22T17:47:24.063Z,100210.0
2023-04-22T17:51:23.747Z,100220.0
2023-04-22T17:55:23.066Z,100210.0
2023-04-22T17:57:22.755Z,100220.0
2023-04-22T17:59:22.455Z,100220.0
2023-04-22T18:01:22.382Z,100220.0
2023-04-22T18:03:22.504Z,100220.0
2023-04-22T18:05:21.992Z,100220.0
2023-04-22T18:07:21.717Z,100230.0
2023-04-22T18:09:21.235Z,100230.0
2023-04-22T18:11:21.148Z,100220.0
2023-04-22T18:13:20.786Z,100220.0
2023-04-22T18:15:22.424Z,100220.0
2023-04-22T18:17:20.247Z,100220.0
2023-04-22T18:19:19.852Z,100220.0
2023-04-22T18:21:19.919Z,100220.0
2023-04-22T18:23:19.598Z,100230.0
2023-04-22T18:25:19.090Z,100230.0
2023-04-22T18:27:18.708Z,100240.0
2023-04-22T18:29:18.512Z,100240.0
2023-04-22T18:31:18.799Z,100240.0
2023-04-22T18:33:17.946Z,100240.0
2023-04-22T18:35:19.008Z,100240.0
2023-04-22T18:37:17.487Z,100240.0
2023-04-22T18:41:16.924Z,100240.0
2023-04-22T18:43:16.596Z,100250.0
2023-04-22T18:45:16.501Z,100250.0
2023-04-22T18:47:16.149Z,100250.0
2023-04-22T18:49:15.694Z,100250.0
2023-04-22T18:51:15.643Z,100250.0
2023-04-22T18:53:15.327Z,100250.0
2023-04-22T18:55:15.041Z,100260.0
2023-04-22T18:57:15.028Z,100260.0
2023-04-22T18:59:14.341Z,100260.0
2023-04-22T19:01:14.319Z,100260.0
2023-04-22T19:03:13.909Z,100260.0
2023-04-22T19:05:13.672Z,100260.0
2023-04-22T19:07:13.307Z,100260.0
2023-04-22T19:09:12.959Z,100270.0
2023-04-22T19:11:12.951Z,100270.0
2023-04-22T19:13:18.873Z,100270.0
2023-04-22T19:15:13.167Z,100270.0
2023-04-22T19:17:11.796Z,100270.0
2023-04-22T19:19:12.052Z,100270.0
2023-04-22T19:21:11.205Z,100270.0
2023-04-22T19:23:11.086Z,100260.0
2023-04-22T19:27:11.208Z,100260.0
2023-04-22T19:29:14.901Z,100250.0
2023-04-22T19:31:10.469Z,100250.0
2023-04-22T19:33:09.724Z,100250.0
2023-04-22T19:35:15.171Z,100250.0
2023-04-22T19:39:08.811Z,100250.0
2023-04-22T19:41:10.432Z,100250.0
2023-04-22T19:43:07.913Z,100250.0
2023-04-22T19:45:08.608Z,100250.0
2023-04-22T19:47:07.602Z,100260.0
2023-04-22T19:49:07.581Z,100260.0
2023-04-22T19:51:09.016Z,100260.0
2023-04-22T19:53:07.732Z,100260.0
2023-04-22T19:55:08.233Z,100270.0
2023-04-22T19:57:06.635Z,100270.0
2023-04-22T20:01:05.771Z,100260.0
2023-04-22T20:03:05.940Z,100260.0
2023-04-22T20:05:05.579Z,100270.0
2023-04-22T20:07:05.882Z,100260.0
2023-04-22T20:09:05.655Z,100270.0
2023-04-22T20:11:04.002Z,100270.0
2023-04-22T20:13:04.630Z,100260.0
2023-04-22T20:17:03.118Z,100270.0
2023-04-22T20:19:02.530Z,100270.0
2023-04-22T20:21:03.137Z,100270.0
2023-04-22T20:23:09.261Z,100270.0
2023-04-22T20:25:03.172Z,100270.0
2023-04-22T20:27:01.898Z,100280.0
2023-04-22T20:29:01.638Z,100270.0
2023-04-22T20:31:00.597Z,100270.0
2023-04-22T20:33:00.460Z,100270.0
2023-04-22T20:35:00.398Z,100270.0
2023-04-22T20:37:01.473Z,100260.0
2023-04-22T20:39:04.160Z,100260.0
2023-04-22T20:41:02.752Z,100260.0
2023-04-22T20:42:58.596Z,100260.0
2023-04-22T20:46:58.038Z,100260.0
2023-04-22T20:48:58.162Z,100250.0
2023-04-22T20:50:57.413Z,100260.0
2023-04-22T20:52:57.103Z,100250.0
2023-04-22T20:54:57.510Z,100240.0
2023-04-22T20:56:56.799Z,100240.0
2023-04-22T20:58:56.078Z,100240.0
2023-04-22T21:00:55.867Z,100240.0
2023-04-22T21:04:56.671Z,100230.0
2023-04-22T21:06:55.609Z,100230.0
2023-04-22T21:08:55.696Z,100230.0
2023-04-22T21:10:55.929Z,100230.0
2023-04-22T21:12:54.493Z,100230.0
2023-04-22T21:16:59.436Z,100220.0
2023-04-22T21:20:55.475Z,100220.0
2023-04-22T21:22:53.466Z,100210.0
2023-04-22T21:24:52.916Z,100210.0
2023-04-22T21:26:52.641Z,100210.0
2023-04-22T21:28:51.775Z,100200.0
2023-04-22T21:30:51.820Z,100210.0
2023-04-22T21:32:51.082Z,100210.0
2023-04-22T21:34:50.801Z,100210.0
2023-04-22T21:36:50.935Z,100210.0
2023-04-22T21:38:49.942Z,100210.0
2023-04-22T21:42:50.020Z,100210.0
2023-04-22T21:44:48.907Z,100210.0
2023-04-22T21:46:48.772Z,100210.0
2023-04-22T21:48:48.278Z,100210.0
2023-04-22T21:50:47.986Z,100210.0
2023-04-22T21:52:48.357Z,100220.0
2023-04-22T21:54:47.341Z,100220.0
2023-04-22T21:56:47.136Z,100220.0
2023-04-22T21:58:46.762Z,100220.0
2023-04-22T22:00:46.449Z,100220.0
2023-04-22T22:02:47.446Z,100220.0
2023-04-22T22:04:46.190Z,100220.0
2023-04-22T22:06:45.597Z,100230.0
2023-04-22T22:10:44.890Z,100220.0
2023-04-22T22:12:45.333Z,100220.0
2023-04-22T22:14:44.176Z,100220.0
2023-04-22T22:16:43.959Z,100220.0
2023-04-22T22:18:44.717Z,100220.0
2023-04-22T22:20:43.464Z,100220.0
2023-04-22T22:22:43.490Z,100220.0
2023-04-22T22:24:43.052Z,100220.0
2023-04-22T22:26:43.236Z,100210.0
2023-04-22T22:28:42.591Z,100210.0
2023-04-22T22:30:42.277Z,100220.0
2023-04-22T22:32:41.499Z,100210.0
2023-04-22T22:34:41.394Z,100210.0
2023-04-22T22:36:40.736Z,100210.0
2023-04-22T22:38:40.411Z,100200.0
2023-04-22T22:40:40.142Z,100210.0
2023-04-22T22:42:39.810Z,100210.0
2023-04-22T22:44:39.701Z,100210.0
2023-04-22T22:46:39.638Z,100210.0
2023-04-22T22:50:39.434Z,100200.0
2023-04-22T22:52:38.390Z,100200.0
2023-04-22T22:54:39.486Z,100200.0
2023-04-22T22:56:37.562Z,100200.0
2023-04-22T22:58:37.276Z,100200.0
2023-04-22T23:00:37.003Z,100200.0
2023-04-22T23:02:36.829Z,100190.0
2023-04-22T23:06:36.003Z,100190.0
2023-04-22T23:08:35.619Z,100190.0
2023-04-22T23:10:35.278Z,100190.0
2023-04-22T23:12:35.378Z,100190.0
2023-04-22T23:14:35.523Z,100190.0
2023-04-22T23:16:34.521Z,100180.0
2023-04-22T23:18:35.836Z,100180.0
2023-04-22T23:22:36.540Z,100180.0
2023-04-22T23:24:33.615Z,100180.0
2023-04-22T23:26:33.435Z,100170.0
2023-04-22T23:28:33.321Z,100170.0
2023-04-22T23:30:32.737Z,100170.0
2023-04-22T23:32:33.809Z,100180.0
2023-04-22T23:34:34.031Z,100170.0
2023-04-22T23:36:32.932Z,100170.0
2023-04-22T23:38:31.168Z,100170.0
2023-04-22T23:40:30.629Z,100160.0
2023-04-22T23:42:30.332Z,100160.0
2023-04-22T23:46:29.714Z,100150.0
2023-04-22T23:48:29.645Z,100150.0
2023-04-22T23:52:29.055Z,100150.0
2023-04-22T23:54:29.125Z,100140.0
2023-04-22T23:56:28.619Z,100140.0
2023-04-22T23:58:28.083Z,100140.0
